sensor_id;sensor_type;location;lat;lon;timestamp;temperature;humidity
4964;DHT22;2497;47.410;9.740;2023-03-03T00:00:50;2.50;99.90
4964;DHT22;2497;47.410;9.740;2023-03-03T00:03:19;2.40;99.90
4964;DHT22;2497;47.410;9.740;2023-03-03T00:05:48;2.40;99.90
4964;DHT22;2497;47.410;9.740;2023-03-03T00:08:15;2.30;99.90
4964;DHT22;2497;47.410;9.740;2023-03-03T00:10:43;2.20;99.90
4964;DHT22;2497;47.410;9.740;2023-03-03T00:13:15;2.20;99.90
4964;DHT22;2497;47.410;9.740;2023-03-03T00:15:43;2.20;99.90
4964;DHT22;2497;47.410;9.740;2023-03-03T00:18:20;2.20;99.90
4964;DHT22;2497;47.410;9.740;2023-03-03T00:20:53;2.20;99.90
4964;DHT22;2497;47.410;9.740;2023-03-03T00:23:27;2.10;99.90
4964;DHT22;2497;47.410;9.740;2023-03-03T00:25:57;2.10;99.90
4964;DHT22;2497;47.410;9.740;2023-03-03T00:28:28;2.10;99.90
4964;DHT22;2497;47.410;9.740;2023-03-03T00:30:57;2.00;99.90
4964;DHT22;2497;47.410;9.740;2023-03-03T00:33:27;2.00;99.90
4964;DHT22;2497;47.410;9.740;2023-03-03T00:38:46;1.90;99.90
4964;DHT22;2497;47.410;9.740;2023-03-03T00:41:16;1.70;99.90
4964;DHT22;2497;47.410;9.740;2023-03-03T00:43:46;1.80;99.90
4964;DHT22;2497;47.410;9.740;2023-03-03T00:46:16;1.70;99.90
4964;DHT22;2497;47.410;9.740;2023-03-03T00:48:44;1.60;99.90
4964;DHT22;2497;47.410;9.740;2023-03-03T00:51:24;1.60;99.90
4964;DHT22;2497;47.410;9.740;2023-03-03T00:53:52;1.60;99.90
4964;DHT22;2497;47.410;9.740;2023-03-03T00:56:19;1.60;99.90
4964;DHT22;2497;47.410;9.740;2023-03-03T00:58:47;1.60;99.90
4964;DHT22;2497;47.410;9.740;2023-03-03T01:01:14;1.60;99.90
4964;DHT22;2497;47.410;9.740;2023-03-03T01:03:42;1.50;99.90
4964;DHT22;2497;47.410;9.740;2023-03-03T01:06:10;1.50;99.90
4964;DHT22;2497;47.410;9.740;2023-03-03T01:08:39;1.50;99.90
4964;DHT22;2497;47.410;9.740;2023-03-03T01:11:09;1.40;99.90
4964;DHT22;2497;47.410;9.740;2023-03-03T01:13:39;1.30;99.90
4964;DHT22;2497;47.410;9.740;2023-03-03T01:16:07;1.30;99.90
4964;DHT22;2497;47.410;9.740;2023-03-03T01:18:35;1.30;99.90
4964;DHT22;2497;47.410;9.740;2023-03-03T01:21:03;1.20;99.90
4964;DHT22;2497;47.410;9.740;2023-03-03T01:23:30;1.20;99.90
4964;DHT22;2497;47.410;9.740;2023-03-03T01:25:59;1.10;99.90
4964;DHT22;2497;47.410;9.740;2023-03-03T01:28:26;1.10;99.90
4964;DHT22;2497;47.410;9.740;2023-03-03T01:30:53;1.10;99.90
4964;DHT22;2497;47.410;9.740;2023-03-03T01:33:20;1.10;99.90
4964;DHT22;2497;47.410;9.740;2023-03-03T01:35:47;1.10;99.90
4964;DHT22;2497;47.410;9.740;2023-03-03T01:38:15;1.30;99.90
4964;DHT22;2497;47.410;9.740;2023-03-03T01:40:42;1.30;99.90
4964;DHT22;2497;47.410;9.740;2023-03-03T01:43:13;1.30;99.90
4964;DHT22;2497;47.410;9.740;2023-03-03T01:49:02;1.30;99.90
4964;DHT22;2497;47.410;9.740;2023-03-03T01:51:36;1.40;99.90
4964;DHT22;2497;47.410;9.740;2023-03-03T01:54:08;1.50;99.90
4964;DHT22;2497;47.410;9.740;2023-03-03T01:56:37;1.60;99.90
4964;DHT22;2497;47.410;9.740;2023-03-03T01:59:10;1.60;99.90
4964;DHT22;2497;47.410;9.740;2023-03-03T02:01:38;1.70;99.90
4964;DHT22;2497;47.410;9.740;2023-03-03T02:04:05;1.70;99.90
4964;DHT22;2497;47.410;9.740;2023-03-03T02:06:34;1.70;99.90
4964;DHT22;2497;47.410;9.740;2023-03-03T02:09:09;1.80;99.90
4964;DHT22;2497;47.410;9.740;2023-03-03T02:11:38;1.80;99.90
4964;DHT22;2497;47.410;9.740;2023-03-03T02:14:09;1.80;99.90
4964;DHT22;2497;47.410;9.740;2023-03-03T02:16:37;1.90;99.90
4964;DHT22;2497;47.410;9.740;2023-03-03T02:19:04;1.90;99.90
4964;DHT22;2497;47.410;9.740;2023-03-03T02:21:35;1.90;99.90
4964;DHT22;2497;47.410;9.740;2023-03-03T02:24:07;1.90;99.90
4964;DHT22;2497;47.410;9.740;2023-03-03T02:26:39;2.00;99.90
4964;DHT22;2497;47.410;9.740;2023-03-03T02:29:07;2.00;99.90
4964;DHT22;2497;47.410;9.740;2023-03-03T02:31:35;2.00;99.90
4964;DHT22;2497;47.410;9.740;2023-03-03T02:34:03;2.00;99.90
4964;DHT22;2497;47.410;9.740;2023-03-03T02:36:32;2.00;99.90
4964;DHT22;2497;47.410;9.740;2023-03-03T02:39:03;2.10;99.90
4964;DHT22;2497;47.410;9.740;2023-03-03T02:41:37;2.10;99.90
4964;DHT22;2497;47.410;9.740;2023-03-03T02:44:07;2.10;99.90
4964;DHT22;2497;47.410;9.740;2023-03-03T02:46:37;2.20;99.90
4964;DHT22;2497;47.410;9.740;2023-03-03T02:49:07;2.20;99.90
4964;DHT22;2497;47.410;9.740;2023-03-03T02:51:35;2.20;99.90
4964;DHT22;2497;47.410;9.740;2023-03-03T02:54:03;2.30;99.90
4964;DHT22;2497;47.410;9.740;2023-03-03T02:56:30;2.30;99.90
4964;DHT22;2497;47.410;9.740;2023-03-03T02:58:59;2.40;99.90
4964;DHT22;2497;47.410;9.740;2023-03-03T03:01:26;2.40;99.90
4964;DHT22;2497;47.410;9.740;2023-03-03T03:03:54;2.30;99.90
4964;DHT22;2497;47.410;9.740;2023-03-03T03:06:21;2.40;99.90
4964;DHT22;2497;47.410;9.740;2023-03-03T03:08:48;2.40;99.90
4964;DHT22;2497;47.410;9.740;2023-03-03T03:11:15;2.40;99.90
4964;DHT22;2497;47.410;9.740;2023-03-03T03:13:43;2.40;99.90
4964;DHT22;2497;47.410;9.740;2023-03-03T03:16:11;2.40;99.90
4964;DHT22;2497;47.410;9.740;2023-03-03T03:18:38;2.40;99.90
4964;DHT22;2497;47.410;9.740;2023-03-03T03:21:07;2.40;99.90
4964;DHT22;2497;47.410;9.740;2023-03-03T03:23:35;2.40;99.90
4964;DHT22;2497;47.410;9.740;2023-03-03T03:26:02;2.40;99.90
4964;DHT22;2497;47.410;9.740;2023-03-03T03:28:29;2.40;99.90
4964;DHT22;2497;47.410;9.740;2023-03-03T03:30:57;2.50;99.90
4964;DHT22;2497;47.410;9.740;2023-03-03T03:33:25;2.60;99.90
4964;DHT22;2497;47.410;9.740;2023-03-03T03:35:53;2.60;99.90
4964;DHT22;2497;47.410;9.740;2023-03-03T03:38:21;2.50;99.90
4964;DHT22;2497;47.410;9.740;2023-03-03T03:40:48;2.50;99.90
4964;DHT22;2497;47.410;9.740;2023-03-03T03:43:16;2.50;99.90
4964;DHT22;2497;47.410;9.740;2023-03-03T03:45:43;2.40;99.90
4964;DHT22;2497;47.410;9.740;2023-03-03T03:48:11;2.40;99.90
4964;DHT22;2497;47.410;9.740;2023-03-03T03:50:39;2.50;99.90
4964;DHT22;2497;47.410;9.740;2023-03-03T03:53:06;2.40;99.90
4964;DHT22;2497;47.410;9.740;2023-03-03T03:55:35;2.40;99.90
4964;DHT22;2497;47.410;9.740;2023-03-03T03:58:03;2.40;99.90
4964;DHT22;2497;47.410;9.740;2023-03-03T04:00:30;2.30;99.90
4964;DHT22;2497;47.410;9.740;2023-03-03T04:02:57;2.20;99.90
4964;DHT22;2497;47.410;9.740;2023-03-03T04:05:24;2.30;99.90
4964;DHT22;2497;47.410;9.740;2023-03-03T04:07:53;2.30;99.90
4964;DHT22;2497;47.410;9.740;2023-03-03T04:10:20;2.30;99.90
4964;DHT22;2497;47.410;9.740;2023-03-03T04:12:47;2.30;99.90
4964;DHT22;2497;47.410;9.740;2023-03-03T04:15:14;2.30;99.90
4964;DHT22;2497;47.410;9.740;2023-03-03T04:17:41;2.20;99.90
4964;DHT22;2497;47.410;9.740;2023-03-03T04:20:12;2.20;99.90
4964;DHT22;2497;47.410;9.740;2023-03-03T04:22:39;2.20;99.90
4964;DHT22;2497;47.410;9.740;2023-03-03T04:25:10;2.30;99.90
4964;DHT22;2497;47.410;9.740;2023-03-03T04:27:38;2.20;99.90
4964;DHT22;2497;47.410;9.740;2023-03-03T04:30:06;2.20;99.90
4964;DHT22;2497;47.410;9.740;2023-03-03T04:32:33;2.20;99.90
4964;DHT22;2497;47.410;9.740;2023-03-03T04:35:00;2.20;99.90
4964;DHT22;2497;47.410;9.740;2023-03-03T04:37:27;2.20;99.90
4964;DHT22;2497;47.410;9.740;2023-03-03T04:39:55;2.10;99.90
4964;DHT22;2497;47.410;9.740;2023-03-03T04:42:23;2.00;99.90
4964;DHT22;2497;47.410;9.740;2023-03-03T04:44:52;2.00;99.90
4964;DHT22;2497;47.410;9.740;2023-03-03T04:47:19;2.00;99.90
4964;DHT22;2497;47.410;9.740;2023-03-03T04:49:47;2.10;99.90
4964;DHT22;2497;47.410;9.740;2023-03-03T04:52:14;2.10;99.90
4964;DHT22;2497;47.410;9.740;2023-03-03T04:54:41;2.20;99.90
4964;DHT22;2497;47.410;9.740;2023-03-03T04:57:08;2.20;99.90
4964;DHT22;2497;47.410;9.740;2023-03-03T04:59:37;2.20;99.90
4964;DHT22;2497;47.410;9.740;2023-03-03T05:02:04;2.20;99.90
4964;DHT22;2497;47.410;9.740;2023-03-03T05:04:33;2.20;99.90
4964;DHT22;2497;47.410;9.740;2023-03-03T05:07:00;2.10;99.90
4964;DHT22;2497;47.410;9.740;2023-03-03T05:09:27;2.20;99.90
4964;DHT22;2497;47.410;9.740;2023-03-03T05:11:54;2.20;99.90
4964;DHT22;2497;47.410;9.740;2023-03-03T05:14:21;2.10;99.90
4964;DHT22;2497;47.410;9.740;2023-03-03T05:16:50;2.10;99.90
4964;DHT22;2497;47.410;9.740;2023-03-03T05:19:17;2.10;99.90
4964;DHT22;2497;47.410;9.740;2023-03-03T05:21:44;2.20;99.90
4964;DHT22;2497;47.410;9.740;2023-03-03T05:24:12;2.10;99.90
4964;DHT22;2497;47.410;9.740;2023-03-03T05:26:40;2.20;99.90
4964;DHT22;2497;47.410;9.740;2023-03-03T05:29:08;2.20;99.90
4964;DHT22;2497;47.410;9.740;2023-03-03T05:31:35;2.20;99.90
4964;DHT22;2497;47.410;9.740;2023-03-03T05:34:04;2.20;99.90
4964;DHT22;2497;47.410;9.740;2023-03-03T05:36:31;2.20;99.90
4964;DHT22;2497;47.410;9.740;2023-03-03T05:38:58;2.20;99.90
4964;DHT22;2497;47.410;9.740;2023-03-03T05:41:25;2.30;99.90
4964;DHT22;2497;47.410;9.740;2023-03-03T05:43:52;2.30;99.90
4964;DHT22;2497;47.410;9.740;2023-03-03T05:46:19;2.30;99.90
4964;DHT22;2497;47.410;9.740;2023-03-03T05:48:47;2.30;99.90
4964;DHT22;2497;47.410;9.740;2023-03-03T05:51:17;2.30;99.90
4964;DHT22;2497;47.410;9.740;2023-03-03T05:53:44;2.30;99.90
4964;DHT22;2497;47.410;9.740;2023-03-03T05:56:11;2.30;99.90
4964;DHT22;2497;47.410;9.740;2023-03-03T05:58:38;2.40;99.90
4964;DHT22;2497;47.410;9.740;2023-03-03T06:01:06;2.40;99.90
4964;DHT22;2497;47.410;9.740;2023-03-03T06:03:33;2.40;99.90
4964;DHT22;2497;47.410;9.740;2023-03-03T06:06:00;2.40;99.90
4964;DHT22;2497;47.410;9.740;2023-03-03T06:08:29;2.50;99.90
4964;DHT22;2497;47.410;9.740;2023-03-03T06:10:57;2.50;99.90
4964;DHT22;2497;47.410;9.740;2023-03-03T06:13:24;2.50;99.90
4964;DHT22;2497;47.410;9.740;2023-03-03T06:15:51;2.50;99.90
4964;DHT22;2497;47.410;9.740;2023-03-03T06:18:18;2.50;99.90
4964;DHT22;2497;47.410;9.740;2023-03-03T06:20:50;2.60;99.90
4964;DHT22;2497;47.410;9.740;2023-03-03T06:23:17;2.60;99.90
4964;DHT22;2497;47.410;9.740;2023-03-03T06:25:46;2.60;99.90
4964;DHT22;2497;47.410;9.740;2023-03-03T06:28:13;2.60;99.90
4964;DHT22;2497;47.410;9.740;2023-03-03T06:30:40;2.60;99.90
4964;DHT22;2497;47.410;9.740;2023-03-03T06:33:07;2.60;99.90
4964;DHT22;2497;47.410;9.740;2023-03-03T06:35:34;2.60;99.90
4964;DHT22;2497;47.410;9.740;2023-03-03T06:38:02;2.60;99.90
4964;DHT22;2497;47.410;9.740;2023-03-03T06:40:29;2.60;99.90
4964;DHT22;2497;47.410;9.740;2023-03-03T06:42:58;2.60;99.90
4964;DHT22;2497;47.410;9.740;2023-03-03T06:45:27;2.60;99.90
4964;DHT22;2497;47.410;9.740;2023-03-03T06:47:54;2.60;99.90
4964;DHT22;2497;47.410;9.740;2023-03-03T06:50:21;2.60;99.90
4964;DHT22;2497;47.410;9.740;2023-03-03T06:52:48;2.60;99.90
4964;DHT22;2497;47.410;9.740;2023-03-03T06:55:22;2.60;99.90
4964;DHT22;2497;47.410;9.740;2023-03-03T06:57:49;2.60;99.90
4964;DHT22;2497;47.410;9.740;2023-03-03T07:00:24;2.60;99.90
4964;DHT22;2497;47.410;9.740;2023-03-03T07:02:56;2.60;99.90
4964;DHT22;2497;47.410;9.740;2023-03-03T07:05:25;2.70;99.90
4964;DHT22;2497;47.410;9.740;2023-03-03T07:07:53;2.70;99.90
4964;DHT22;2497;47.410;9.740;2023-03-03T07:10:26;2.80;99.90
4964;DHT22;2497;47.410;9.740;2023-03-03T07:12:55;2.80;99.90
4964;DHT22;2497;47.410;9.740;2023-03-03T07:15:29;2.90;99.90
4964;DHT22;2497;47.410;9.740;2023-03-03T07:17:57;2.90;99.90
4964;DHT22;2497;47.410;9.740;2023-03-03T07:20:29;2.90;99.90
4964;DHT22;2497;47.410;9.740;2023-03-03T07:22:58;2.90;99.90
4964;DHT22;2497;47.410;9.740;2023-03-03T07:25:31;3.00;99.90
4964;DHT22;2497;47.410;9.740;2023-03-03T07:28:19;3.10;99.90
4964;DHT22;2497;47.410;9.740;2023-03-03T07:30:49;3.10;99.90
4964;DHT22;2497;47.410;9.740;2023-03-03T07:33:22;3.10;99.90
4964;DHT22;2497;47.410;9.740;2023-03-03T07:35:52;3.20;99.90
4964;DHT22;2497;47.410;9.740;2023-03-03T07:38:24;3.20;99.90
4964;DHT22;2497;47.410;9.740;2023-03-03T07:40:53;3.20;99.90
4964;DHT22;2497;47.410;9.740;2023-03-03T07:43:30;3.30;99.90
4964;DHT22;2497;47.410;9.740;2023-03-03T07:46:19;3.30;99.90
4964;DHT22;2497;47.410;9.740;2023-03-03T07:48:48;3.40;99.90
4964;DHT22;2497;47.410;9.740;2023-03-03T07:51:18;3.40;99.90
4964;DHT22;2497;47.410;9.740;2023-03-03T07:53:48;3.40;99.90
4964;DHT22;2497;47.410;9.740;2023-03-03T07:56:29;3.50;99.90
4964;DHT22;2497;47.410;9.740;2023-03-03T07:58:57;3.50;99.90
4964;DHT22;2497;47.410;9.740;2023-03-03T08:01:40;3.50;99.90
4964;DHT22;2497;47.410;9.740;2023-03-03T08:04:15;3.60;99.90
4964;DHT22;2497;47.410;9.740;2023-03-03T08:06:50;3.60;99.90
4964;DHT22;2497;47.410;9.740;2023-03-03T08:09:37;3.70;99.90
4964;DHT22;2497;47.410;9.740;2023-03-03T08:12:27;3.70;99.90
4964;DHT22;2497;47.410;9.740;2023-03-03T08:14:57;3.80;99.90
4964;DHT22;2497;47.410;9.740;2023-03-03T08:17:35;3.80;99.90
4964;DHT22;2497;47.410;9.740;2023-03-03T08:23:18;3.80;99.90
4964;DHT22;2497;47.410;9.740;2023-03-03T08:25:46;3.90;99.90
4964;DHT22;2497;47.410;9.740;2023-03-03T08:28:13;3.70;99.90
4964;DHT22;2497;47.410;9.740;2023-03-03T08:30:42;3.80;99.90
4964;DHT22;2497;47.410;9.740;2023-03-03T08:33:12;3.80;99.90
4964;DHT22;2497;47.410;9.740;2023-03-03T08:35:39;3.70;99.90
4964;DHT22;2497;47.410;9.740;2023-03-03T08:38:07;3.60;99.90
4964;DHT22;2497;47.410;9.740;2023-03-03T08:40:35;3.60;99.90
4964;DHT22;2497;47.410;9.740;2023-03-03T08:43:03;3.80;99.90
4964;DHT22;2497;47.410;9.740;2023-03-03T08:45:31;3.90;99.90
4964;DHT22;2497;47.410;9.740;2023-03-03T08:47:59;4.00;99.90
4964;DHT22;2497;47.410;9.740;2023-03-03T08:50:28;4.00;99.90
4964;DHT22;2497;47.410;9.740;2023-03-03T08:52:55;4.00;99.90
4964;DHT22;2497;47.410;9.740;2023-03-03T08:55:23;3.90;99.90
4964;DHT22;2497;47.410;9.740;2023-03-03T08:57:50;4.10;99.90
4964;DHT22;2497;47.410;9.740;2023-03-03T09:00:18;4.10;99.90
4964;DHT22;2497;47.410;9.740;2023-03-03T09:02:46;4.10;99.90
4964;DHT22;2497;47.410;9.740;2023-03-03T09:05:14;4.10;99.90
4964;DHT22;2497;47.410;9.740;2023-03-03T09:07:44;3.90;99.90
4964;DHT22;2497;47.410;9.740;2023-03-03T09:10:13;4.00;99.90
4964;DHT22;2497;47.410;9.740;2023-03-03T09:12:43;4.20;99.90
4964;DHT22;2497;47.410;9.740;2023-03-03T09:15:18;4.40;99.90
4964;DHT22;2497;47.410;9.740;2023-03-03T09:17:46;4.40;99.90
4964;DHT22;2497;47.410;9.740;2023-03-03T09:20:30;4.80;99.90
4964;DHT22;2497;47.410;9.740;2023-03-03T09:22:59;4.60;99.90
4964;DHT22;2497;47.410;9.740;2023-03-03T09:25:42;4.70;99.90
4964;DHT22;2497;47.410;9.740;2023-03-03T09:28:21;4.70;99.90
4964;DHT22;2497;47.410;9.740;2023-03-03T09:30:51;4.70;99.90
4964;DHT22;2497;47.410;9.740;2023-03-03T09:33:27;4.60;99.90
4964;DHT22;2497;47.410;9.740;2023-03-03T09:36:02;4.80;99.90
4964;DHT22;2497;47.410;9.740;2023-03-03T09:38:34;4.70;99.90
4964;DHT22;2497;47.410;9.740;2023-03-03T09:41:39;4.70;99.90
4964;DHT22;2497;47.410;9.740;2023-03-03T09:44:35;4.70;99.90
4964;DHT22;2497;47.410;9.740;2023-03-03T09:47:18;5.00;99.90
4964;DHT22;2497;47.410;9.740;2023-03-03T09:49:56;5.00;99.90
4964;DHT22;2497;47.410;9.740;2023-03-03T09:52:37;4.90;99.90
4964;DHT22;2497;47.410;9.740;2023-03-03T09:55:20;4.90;99.90
4964;DHT22;2497;47.410;9.740;2023-03-03T09:58:00;4.80;99.90
4964;DHT22;2497;47.410;9.740;2023-03-03T10:00:41;4.80;99.90
4964;DHT22;2497;47.410;9.740;2023-03-03T10:06:17;5.20;99.90
4964;DHT22;2497;47.410;9.740;2023-03-03T10:11:55;5.40;99.90
4964;DHT22;2497;47.410;9.740;2023-03-03T10:17:37;5.80;99.90
4964;DHT22;2497;47.410;9.740;2023-03-03T10:20:22;6.00;99.90
4964;DHT22;2497;47.410;9.740;2023-03-03T10:22:52;6.20;99.90
4964;DHT22;2497;47.410;9.740;2023-03-03T10:25:28;6.20;99.90
4964;DHT22;2497;47.410;9.740;2023-03-03T10:28:15;6.20;99.90
4964;DHT22;2497;47.410;9.740;2023-03-03T10:30:48;6.20;99.90
4964;DHT22;2497;47.410;9.740;2023-03-03T10:33:23;6.30;99.90
4964;DHT22;2497;47.410;9.740;2023-03-03T10:36:06;6.10;99.90
4964;DHT22;2497;47.410;9.740;2023-03-03T10:38:51;6.10;99.90
4964;DHT22;2497;47.410;9.740;2023-03-03T10:41:37;6.10;99.90
4964;DHT22;2497;47.410;9.740;2023-03-03T10:44:34;5.90;99.90
4964;DHT22;2497;47.410;9.740;2023-03-03T10:50:13;5.90;99.90
4964;DHT22;2497;47.410;9.740;2023-03-03T10:52:47;5.70;99.90
4964;DHT22;2497;47.410;9.740;2023-03-03T10:55:35;5.80;99.90
4964;DHT22;2497;47.410;9.740;2023-03-03T10:58:18;5.80;99.90
4964;DHT22;2497;47.410;9.740;2023-03-03T11:01:01;5.60;99.90
4964;DHT22;2497;47.410;9.740;2023-03-03T11:04:09;5.50;99.90
4964;DHT22;2497;47.410;9.740;2023-03-03T11:06:46;5.70;99.90
4964;DHT22;2497;47.410;9.740;2023-03-03T11:09:30;5.80;99.90
4964;DHT22;2497;47.410;9.740;2023-03-03T11:12:06;5.80;99.90
4964;DHT22;2497;47.410;9.740;2023-03-03T11:14:41;5.80;99.90
4964;DHT22;2497;47.410;9.740;2023-03-03T11:17:17;5.80;99.90
4964;DHT22;2497;47.410;9.740;2023-03-03T11:19:58;5.70;99.90
4964;DHT22;2497;47.410;9.740;2023-03-03T11:22:36;5.70;99.90
4964;DHT22;2497;47.410;9.740;2023-03-03T11:25:19;5.80;99.90
4964;DHT22;2497;47.410;9.740;2023-03-03T11:28:05;5.70;99.90
4964;DHT22;2497;47.410;9.740;2023-03-03T11:30:57;5.80;99.90
4964;DHT22;2497;47.410;9.740;2023-03-03T11:33:34;5.90;99.90
4964;DHT22;2497;47.410;9.740;2023-03-03T11:36:09;6.10;99.90
4964;DHT22;2497;47.410;9.740;2023-03-03T11:38:46;6.20;99.90
4964;DHT22;2497;47.410;9.740;2023-03-03T11:41:29;6.20;99.90
4964;DHT22;2497;47.410;9.740;2023-03-03T11:44:02;6.30;99.90
4964;DHT22;2497;47.410;9.740;2023-03-03T11:46:35;6.20;99.90
4964;DHT22;2497;47.410;9.740;2023-03-03T11:49:10;6.20;99.90
4964;DHT22;2497;47.410;9.740;2023-03-03T11:51:46;6.40;99.90
4964;DHT22;2497;47.410;9.740;2023-03-03T11:54:18;6.30;99.90
4964;DHT22;2497;47.410;9.740;2023-03-03T11:56:48;6.40;99.90
4964;DHT22;2497;47.410;9.740;2023-03-03T11:59:33;6.40;99.90
4964;DHT22;2497;47.410;9.740;2023-03-03T12:02:12;6.20;99.90
4964;DHT22;2497;47.410;9.740;2023-03-03T12:04:45;6.10;99.90
4964;DHT22;2497;47.410;9.740;2023-03-03T12:07:22;6.10;99.90
4964;DHT22;2497;47.410;9.740;2023-03-03T12:10:02;6.00;99.90
4964;DHT22;2497;47.410;9.740;2023-03-03T12:12:40;6.00;99.90
4964;DHT22;2497;47.410;9.740;2023-03-03T12:15:18;5.90;99.90
4964;DHT22;2497;47.410;9.740;2023-03-03T12:20:54;5.60;99.90
4964;DHT22;2497;47.410;9.740;2023-03-03T12:26:28;6.00;99.90
4964;DHT22;2497;47.410;9.740;2023-03-03T12:29:05;6.00;99.90
4964;DHT22;2497;47.410;9.740;2023-03-03T12:31:44;6.20;99.90
4964;DHT22;2497;47.410;9.740;2023-03-03T12:34:21;6.10;99.90
4964;DHT22;2497;47.410;9.740;2023-03-03T12:37:00;6.40;99.90
4964;DHT22;2497;47.410;9.740;2023-03-03T12:39:44;6.30;99.90
4964;DHT22;2497;47.410;9.740;2023-03-03T12:42:22;6.30;99.90
4964;DHT22;2497;47.410;9.740;2023-03-03T12:44:58;6.40;99.90
4964;DHT22;2497;47.410;9.740;2023-03-03T12:47:32;6.30;99.90
4964;DHT22;2497;47.410;9.740;2023-03-03T12:50:13;6.40;99.90
4964;DHT22;2497;47.410;9.740;2023-03-03T12:52:56;6.40;99.90
4964;DHT22;2497;47.410;9.740;2023-03-03T12:55:34;6.40;99.90
4964;DHT22;2497;47.410;9.740;2023-03-03T12:58:10;6.70;99.90
4964;DHT22;2497;47.410;9.740;2023-03-03T13:00:50;6.90;99.90
4964;DHT22;2497;47.410;9.740;2023-03-03T13:03:30;7.10;99.90
4964;DHT22;2497;47.410;9.740;2023-03-03T13:06:03;7.00;99.90
4964;DHT22;2497;47.410;9.740;2023-03-03T13:08:46;6.80;99.90
4964;DHT22;2497;47.410;9.740;2023-03-03T13:11:30;7.00;99.90
4964;DHT22;2497;47.410;9.740;2023-03-03T13:14:04;6.90;99.90
4964;DHT22;2497;47.410;9.740;2023-03-03T13:16:40;6.80;99.90
4964;DHT22;2497;47.410;9.740;2023-03-03T13:19:14;6.80;99.90
4964;DHT22;2497;47.410;9.740;2023-03-03T13:21:46;7.10;99.90
4964;DHT22;2497;47.410;9.740;2023-03-03T13:24:20;7.10;99.90
4964;DHT22;2497;47.410;9.740;2023-03-03T13:26:52;7.00;99.90
4964;DHT22;2497;47.410;9.740;2023-03-03T13:29:24;7.10;99.90
4964;DHT22;2497;47.410;9.740;2023-03-03T13:31:55;7.30;99.90
4964;DHT22;2497;47.410;9.740;2023-03-03T13:34:33;7.60;99.90
4964;DHT22;2497;47.410;9.740;2023-03-03T13:37:06;7.70;99.90
4964;DHT22;2497;47.410;9.740;2023-03-03T13:39:44;7.70;99.90
4964;DHT22;2497;47.410;9.740;2023-03-03T13:42:18;7.60;99.90
4964;DHT22;2497;47.410;9.740;2023-03-03T13:44:49;7.30;99.90
4964;DHT22;2497;47.410;9.740;2023-03-03T13:47:22;7.50;99.90
4964;DHT22;2497;47.410;9.740;2023-03-03T13:50:04;7.60;99.90
4964;DHT22;2497;47.410;9.740;2023-03-03T13:52:43;7.90;99.90
4964;DHT22;2497;47.410;9.740;2023-03-03T13:55:21;7.70;99.90
4964;DHT22;2497;47.410;9.740;2023-03-03T13:57:59;7.80;99.90
4964;DHT22;2497;47.410;9.740;2023-03-03T14:00:49;7.90;99.90
4964;DHT22;2497;47.410;9.740;2023-03-03T14:03:46;7.70;99.90
4964;DHT22;2497;47.410;9.740;2023-03-03T14:06:16;7.70;99.90
4964;DHT22;2497;47.410;9.740;2023-03-03T14:11:42;7.60;99.90
4964;DHT22;2497;47.410;9.740;2023-03-03T14:14:24;7.40;99.90
4964;DHT22;2497;47.410;9.740;2023-03-03T14:17:01;7.40;99.90
4964;DHT22;2497;47.410;9.740;2023-03-03T14:19:33;7.40;99.90
4964;DHT22;2497;47.410;9.740;2023-03-03T14:22:15;7.40;99.90
4964;DHT22;2497;47.410;9.740;2023-03-03T14:24:59;7.30;99.90
4964;DHT22;2497;47.410;9.740;2023-03-03T14:27:34;7.40;99.90
4964;DHT22;2497;47.410;9.740;2023-03-03T14:30:38;7.30;99.90
4964;DHT22;2497;47.410;9.740;2023-03-03T14:33:18;7.30;99.90
4964;DHT22;2497;47.410;9.740;2023-03-03T14:35:50;7.30;99.90
4964;DHT22;2497;47.410;9.740;2023-03-03T14:38:20;7.20;99.90
4964;DHT22;2497;47.410;9.740;2023-03-03T14:40:48;7.20;99.90
4964;DHT22;2497;47.410;9.740;2023-03-03T14:43:22;7.30;99.90
4964;DHT22;2497;47.410;9.740;2023-03-03T14:45:50;7.40;99.90
4964;DHT22;2497;47.410;9.740;2023-03-03T14:48:19;7.50;99.90
4964;DHT22;2497;47.410;9.740;2023-03-03T14:50:49;7.40;99.90
4964;DHT22;2497;47.410;9.740;2023-03-03T14:53:22;7.30;99.90
4964;DHT22;2497;47.410;9.740;2023-03-03T14:56:14;7.10;99.90
4964;DHT22;2497;47.410;9.740;2023-03-03T14:58:43;6.90;99.90
4964;DHT22;2497;47.410;9.740;2023-03-03T15:01:14;6.90;99.90
4964;DHT22;2497;47.410;9.740;2023-03-03T15:03:51;6.90;99.90
4964;DHT22;2497;47.410;9.740;2023-03-03T15:06:34;6.80;99.90
4964;DHT22;2497;47.410;9.740;2023-03-03T15:12:21;6.50;99.90
4964;DHT22;2497;47.410;9.740;2023-03-03T15:14:51;6.70;99.90
4964;DHT22;2497;47.410;9.740;2023-03-03T15:18:00;6.70;99.90
4964;DHT22;2497;47.410;9.740;2023-03-03T15:20:36;7.00;99.90
4964;DHT22;2497;47.410;9.740;2023-03-03T15:23:37;7.00;99.90
4964;DHT22;2497;47.410;9.740;2023-03-03T15:26:12;6.90;99.90
4964;DHT22;2497;47.410;9.740;2023-03-03T15:28:54;7.00;99.90
4964;DHT22;2497;47.410;9.740;2023-03-03T15:31:34;7.00;99.90
4964;DHT22;2497;47.410;9.740;2023-03-03T15:34:08;6.80;99.90
4964;DHT22;2497;47.410;9.740;2023-03-03T15:36:44;6.80;99.90
4964;DHT22;2497;47.410;9.740;2023-03-03T15:39:21;6.70;99.90
4964;DHT22;2497;47.410;9.740;2023-03-03T15:41:56;6.70;99.90
4964;DHT22;2497;47.410;9.740;2023-03-03T15:44:37;6.50;99.90
4964;DHT22;2497;47.410;9.740;2023-03-03T15:47:19;6.60;99.90
4964;DHT22;2497;47.410;9.740;2023-03-03T15:50:04;6.50;99.90
4964;DHT22;2497;47.410;9.740;2023-03-03T15:52:46;6.40;99.90
4964;DHT22;2497;47.410;9.740;2023-03-03T15:55:31;6.40;99.90
4964;DHT22;2497;47.410;9.740;2023-03-03T15:58:12;6.40;99.90
4964;DHT22;2497;47.410;9.740;2023-03-03T16:00:55;6.30;99.90
4964;DHT22;2497;47.410;9.740;2023-03-03T16:03:30;6.30;99.90
4964;DHT22;2497;47.410;9.740;2023-03-03T16:06:05;6.20;99.90
4964;DHT22;2497;47.410;9.740;2023-03-03T16:08:47;6.20;99.90
4964;DHT22;2497;47.410;9.740;2023-03-03T16:11:22;6.10;99.90
4964;DHT22;2497;47.410;9.740;2023-03-03T16:14:00;6.10;99.90
4964;DHT22;2497;47.410;9.740;2023-03-03T16:16:37;6.10;99.90
4964;DHT22;2497;47.410;9.740;2023-03-03T16:19:22;6.00;99.90
4964;DHT22;2497;47.410;9.740;2023-03-03T16:22:06;6.00;99.90
4964;DHT22;2497;47.410;9.740;2023-03-03T16:24:46;6.00;99.90
4964;DHT22;2497;47.410;9.740;2023-03-03T16:27:19;5.90;99.90
4964;DHT22;2497;47.410;9.740;2023-03-03T16:32:43;6.00;99.90
4964;DHT22;2497;47.410;9.740;2023-03-03T16:35:21;6.10;99.90
4964;DHT22;2497;47.410;9.740;2023-03-03T16:37:58;6.00;99.90
4964;DHT22;2497;47.410;9.740;2023-03-03T16:40:31;5.90;99.90
4964;DHT22;2497;47.410;9.740;2023-03-03T16:43:10;6.00;99.90
4964;DHT22;2497;47.410;9.740;2023-03-03T16:45:39;5.90;99.90
4964;DHT22;2497;47.410;9.740;2023-03-03T16:48:24;5.80;99.90
4964;DHT22;2497;47.410;9.740;2023-03-03T16:51:20;5.80;99.90
4964;DHT22;2497;47.410;9.740;2023-03-03T16:54:00;5.80;99.90
4964;DHT22;2497;47.410;9.740;2023-03-03T16:56:35;5.80;99.90
4964;DHT22;2497;47.410;9.740;2023-03-03T16:59:34;5.80;99.90
4964;DHT22;2497;47.410;9.740;2023-03-03T17:05:26;5.60;99.90
4964;DHT22;2497;47.410;9.740;2023-03-03T17:08:11;5.50;99.90
4964;DHT22;2497;47.410;9.740;2023-03-03T17:10:49;5.40;99.90
4964;DHT22;2497;47.410;9.740;2023-03-03T17:13:32;5.40;99.90
4964;DHT22;2497;47.410;9.740;2023-03-03T17:16:12;5.30;99.90
4964;DHT22;2497;47.410;9.740;2023-03-03T17:18:51;5.30;99.90
4964;DHT22;2497;47.410;9.740;2023-03-03T17:21:30;5.30;99.90
4964;DHT22;2497;47.410;9.740;2023-03-03T17:24:12;5.20;99.90
4964;DHT22;2497;47.410;9.740;2023-03-03T17:26:56;5.20;99.90
4964;DHT22;2497;47.410;9.740;2023-03-03T17:29:38;5.20;99.90
4964;DHT22;2497;47.410;9.740;2023-03-03T17:32:19;5.10;99.90
4964;DHT22;2497;47.410;9.740;2023-03-03T17:35:03;5.10;99.90
4964;DHT22;2497;47.410;9.740;2023-03-03T17:37:38;5.10;99.90